Time;durP1;ratioP1;P1;durP2;ratioP2;P2;SDS_P1;SDS_P2;PMS_P1;PMS_P2;Temp;Humidity;BMP_temperature;BMP_pressure;BME280_temperature;BME280_humidity;BME280_pressure;Samples;Min_cycle;Max_cycle;Signal;HPM_P1;HPM_P2
2021/11/08 00:01:29;;;;;;;23.88;9.63;;;9.70;91.20;;;;;;6277658;28;20524;-85
2021/11/08 00:04:33;;;;;;;21.83;9.15;;;9.70;91.30;;;;;;6280019;28;20057;-84
2021/11/08 00:07:36;;;;;;;20.42;9.32;;;9.60;91.20;;;;;;6279780;28;20052;-84
2021/11/08 00:10:38;;;;;;;19.10;9.45;;;9.60;91.30;;;;;;6280213;28;20052;-85
2021/11/08 00:13:40;;;;;;;24.40;8.85;;;9.60;91.20;;;;;;6278949;28;20538;-85
2021/11/08 00:16:50;;;;;;;21.10;9.40;;;9.60;91.30;;;;;;6278991;28;20049;-85
2021/11/08 00:20:01;;;;;;;19.83;9.70;;;9.60;91.30;;;;;;6277805;28;20422;-85
2021/11/08 00:23:08;;;;;;;23.05;9.95;;;9.60;91.30;;;;;;6269892;28;20053;-83
2021/11/08 00:26:10;;;;;;;21.92;9.63;;;9.60;91.30;;;;;;6254189;28;20048;-82
2021/11/08 00:29:11;;;;;;;24.13;11.63;;;9.60;91.20;;;;;;6260247;28;20044;-83
2021/11/08 00:32:15;;;;;;;23.42;9.32;;;9.60;91.20;;;;;;6278922;28;20044;-84
2021/11/08 00:35:17;;;;;;;19.20;9.85;;;9.60;91.20;;;;;;6279566;28;20152;-85
2021/11/08 00:38:20;;;;;;;23.65;10.50;;;9.50;91.30;;;;;;6278365;28;20045;-84
2021/11/08 00:41:21;;;;;;;24.58;10.68;;;9.30;91.30;;;;;;6276909;28;20048;-83
2021/11/08 00:44:23;;;;;;;20.13;10.23;;;9.20;91.50;;;;;;6277268;28;20040;-85
2021/11/08 00:47:28;;;;;;;20.38;10.93;;;9.00;91.80;;;;;;6278428;28;20057;-85
2021/11/08 00:50:30;;;;;;;20.60;9.80;;;8.90;92.20;;;;;;6277795;28;20067;-84
2021/11/08 00:53:32;;;;;;;31.13;10.75;;;8.90;92.20;;;;;;6279579;28;20457;-85
2021/11/08 00:56:34;;;;;;;22.63;11.02;;;8.90;92.20;;;;;;6281520;28;20045;-83
2021/11/08 00:59:36;;;;;;;31.33;10.90;;;9.10;92.20;;;;;;6281153;28;20135;-83
2021/11/08 01:02:39;;;;;;;23.02;10.65;;;9.00;92.10;;;;;;6281903;28;20057;-84
2021/11/08 01:05:41;;;;;;;32.47;12.02;;;9.00;92.10;;;;;;6281532;28;20073;-84
2021/11/08 01:08:44;;;;;;;25.58;11.00;;;9.00;92.10;;;;;;6281896;28;20128;-84
2021/11/08 01:11:46;;;;;;;28.45;12.13;;;9.10;91.90;;;;;;6281505;28;20114;-85
2021/11/08 01:14:48;;;;;;;22.63;10.27;;;9.00;91.80;;;;;;6283245;28;20049;-82
2021/11/08 01:17:52;;;;;;;26.33;12.02;;;9.20;91.80;;;;;;6281772;28;20041;-84
2021/11/08 01:20:54;;;;;;;21.85;10.48;;;9.20;91.70;;;;;;6303198;28;20037;-82
2021/11/08 01:23:56;;;;;;;28.38;12.57;;;9.20;91.60;;;;;;6286694;28;20065;-82
2021/11/08 01:26:57;;;;;;;28.42;11.88;;;9.20;91.90;;;;;;6260281;28;20053;-83
2021/11/08 01:29:59;;;;;;;24.83;11.18;;;9.20;91.60;;;;;;6259626;28;20053;-84
2021/11/08 01:33:06;;;;;;;27.65;12.00;;;9.20;91.60;;;;;;6259258;28;20088;-85
2021/11/08 01:36:13;;;;;;;26.77;11.10;;;9.20;91.70;;;;;;6266655;28;20060;-84
2021/11/08 01:39:17;;;;;;;24.60;12.17;;;9.20;91.90;;;;;;6282242;28;20473;-84
2021/11/08 01:42:19;;;;;;;31.83;13.75;;;9.20;91.90;;;;;;6280600;28;20160;-84
2021/11/08 01:45:21;;;;;;;25.80;12.20;;;9.20;91.90;;;;;;6280817;28;20045;-83
2021/11/08 01:48:24;;;;;;;29.95;11.20;;;9.20;91.90;;;;;;6281862;28;20040;-84
2021/11/08 01:51:26;;;;;;;35.13;11.52;;;9.20;91.90;;;;;;6281429;28;20136;-84
2021/11/08 01:54:28;;;;;;;29.73;11.30;;;9.20;91.90;;;;;;6281298;28;20049;-84
2021/11/08 01:57:31;;;;;;;27.45;10.80;;;9.20;91.90;;;;;;6281347;28;20053;-84
2021/11/08 02:00:34;;;;;;;30.02;10.98;;;9.30;91.80;;;;;;6280726;28;20045;-83
2021/11/08 02:03:37;;;;;;;25.90;11.52;;;9.20;91.80;;;;;;6280062;28;20355;-82
2021/11/08 02:06:39;;;;;;;28.10;10.60;;;9.20;91.80;;;;;;6282131;28;20044;-83
2021/11/08 02:09:41;;;;;;;27.50;10.25;;;9.10;91.70;;;;;;6280740;28;20109;-83
2021/11/08 02:12:44;;;;;;;35.75;10.90;;;9.10;91.80;;;;;;6281389;28;20060;-84
2021/11/08 02:15:46;;;;;;;32.42;9.73;;;9.00;91.80;;;;;;6280556;28;20057;-83
2021/11/08 02:18:49;;;;;;;26.40;9.18;;;8.90;91.90;;;;;;6281198;28;20044;-84
2021/11/08 02:21:52;;;;;;;25.02;8.73;;;8.70;92.00;;;;;;6281339;28;20052;-83
2021/11/08 02:24:54;;;;;;;23.70;8.65;;;8.70;92.10;;;;;;6265041;28;20041;-83
2021/11/08 02:27:57;;;;;;;23.92;9.23;;;8.60;92.00;;;;;;6280658;28;20041;-84
2021/11/08 02:30:59;;;;;;;28.20;9.90;;;8.60;92.00;;;;;;6280960;28;20043;-83
2021/11/08 02:34:01;;;;;;;22.45;8.82;;;8.50;92.00;;;;;;6280659;28;20049;-83
2021/11/08 02:37:04;;;;;;;29.33;10.77;;;8.40;92.10;;;;;;6280639;28;20048;-83
2021/11/08 02:40:13;;;;;;;28.77;11.02;;;8.30;92.00;;;;;;6280376;28;20132;-84
2021/11/08 02:43:20;;;;;;;23.27;10.25;;;8.20;92.10;;;;;;6285443;28;20049;-83
2021/11/08 02:46:26;;;;;;;31.50;9.85;;;8.10;92.10;;;;;;6287547;28;20053;-84
2021/11/08 02:49:31;;;;;;;30.25;10.30;;;8.10;92.10;;;;;;6281624;28;20041;-84
2021/11/08 02:52:34;;;;;;;25.65;10.23;;;8.00;92.10;;;;;;6281839;28;20049;-85
2021/11/08 02:55:36;;;;;;;20.73;9.20;;;7.90;92.00;;;;;;6281680;28;20060;-84
2021/11/08 02:58:42;;;;;;;26.02;9.20;;;7.80;92.10;;;;;;6281641;28;20110;-84
2021/11/08 03:01:46;;;;;;;24.73;8.70;;;7.80;92.10;;;;;;6287592;28;20045;-82
2021/11/08 03:04:51;;;;;;;24.35;10.10;;;7.70;92.10;;;;;;6286798;28;20049;-83
2021/11/08 03:07:54;;;;;;;24.70;9.20;;;7.70;92.10;;;;;;6279473;28;20473;-84
2021/11/08 03:10:57;;;;;;;22.38;9.02;;;7.60;92.00;;;;;;6279632;28;20057;-82
2021/11/08 03:14:03;;;;;;;25.67;9.93;;;7.60;92.00;;;;;;6279761;28;20048;-83
2021/11/08 03:17:05;;;;;;;28.80;9.90;;;7.60;92.00;;;;;;6278994;28;20418;-83
2021/11/08 03:20:10;;;;;;;25.00;9.02;;;7.50;92.00;;;;;;6278028;28;20120;-83
2021/11/08 03:23:14;;;;;;;22.02;9.23;;;7.60;92.00;;;;;;6278995;28;20080;-82
2021/11/08 03:26:26;;;;;;;23.70;9.90;;;7.70;92.00;;;;;;6269447;28;20104;-83
2021/11/08 03:29:27;;;;;;;39.58;10.25;;;7.70;91.90;;;;;;6278155;28;20045;-83
2021/11/08 03:32:30;;;;;;;33.75;11.23;;;7.70;91.80;;;;;;6278586;28;20120;-81
2021/11/08 03:35:32;;;;;;;31.42;11.32;;;7.70;91.80;;;;;;6278776;28;20480;-83
2021/11/08 03:38:38;;;;;;;31.55;9.70;;;7.70;91.90;;;;;;6278427;28;20088;-84
2021/11/08 03:41:41;;;;;;;31.90;10.82;;;7.80;91.80;;;;;;6279228;28;20041;-83
2021/11/08 03:44:43;;;;;;;43.28;12.80;;;7.80;92.00;;;;;;6279082;28;20045;-84
2021/11/08 03:47:45;;;;;;;27.38;10.63;;;7.80;91.90;;;;;;6277726;28;20142;-83
2021/11/08 03:50:48;;;;;;;35.85;12.52;;;7.80;91.90;;;;;;6278601;28;20418;-82
2021/11/08 03:53:51;;;;;;;35.42;9.88;;;7.80;91.80;;;;;;6278096;28;20048;-84
2021/11/08 03:56:53;;;;;;;30.45;10.32;;;7.70;91.60;;;;;;6278374;28;20049;-84
2021/11/08 03:59:54;;;;;;;29.08;10.27;;;7.60;91.60;;;;;;6278203;28;20391;-82
2021/11/08 04:02:58;;;;;;;30.58;9.73;;;7.50;91.60;;;;;;6285593;28;20435;-83
2021/11/08 04:06:00;;;;;;;33.47;10.32;;;7.40;91.70;;;;;;6279080;28;20056;-83
2021/11/08 04:09:06;;;;;;;31.20;10.45;;;7.30;91.80;;;;;;6278988;28;20065;-84
2021/11/08 04:12:09;;;;;;;38.08;10.18;;;7.20;91.80;;;;;;6279331;28;20103;-85
2021/11/08 04:15:14;;;;;;;30.85;8.88;;;7.20;91.80;;;;;;6279595;28;20112;-84
2021/11/08 04:18:19;;;;;;;42.03;13.65;;;7.10;91.70;;;;;;6278291;28;20074;-84
2021/11/08 04:21:21;;;;;;;46.42;16.65;;;7.10;93.20;;;;;;6278081;28;20145;-83
2021/11/08 04:24:25;;;;;;;28.52;10.60;;;7.40;94.50;;;;;;6286188;22;20546;-80
2021/11/08 04:27:26;;;;;;;28.50;10.38;;;7.40;92.60;;;;;;6284822;28;20402;-81
2021/11/08 04:30:31;;;;;;;26.20;10.75;;;7.30;92.10;;;;;;6278855;28;20755;-80
2021/11/08 04:33:35;;;;;;;22.90;7.80;;;7.10;91.80;;;;;;6280341;28;20164;-80
2021/11/08 04:36:56;;;;;;;26.30;9.20;;;7.00;91.70;;;;;;6278605;28;20124;-80
2021/11/08 04:40:08;;;;;;;21.35;8.57;;;6.80;91.80;;;;;;6278039;28;20506;-80
2021/11/08 04:43:15;;;;;;;40.25;9.68;;;6.70;91.60;;;;;;6279103;28;20048;-81
2021/11/08 04:49:50;;;;;;;28.25;9.43;;;6.40;91.60;;;;;;6272825;28;20037;-81
2021/11/08 04:53:04;;;;;;;26.27;9.20;;;6.30;91.60;;;;;;6278999;28;20052;-81
2021/11/08 05:23:02;;;;;;;13.98;6.75;;;5.70;91.70;;;;;;6279567;28;20076;-82
2021/11/08 05:32:50;;;;;;;26.42;9.73;;;5.50;91.50;;;;;;6278854;28;20492;-81
2021/11/08 05:35:52;;;;;;;32.05;9.20;;;5.40;91.40;;;;;;6278918;28;20060;-82
2021/11/08 05:38:54;;;;;;;32.90;9.50;;;5.30;91.50;;;;;;6278005;28;20045;-81
2021/11/08 05:41:56;;;;;;;31.35;8.27;;;5.20;91.60;;;;;;6279158;28;20131;-81
2021/11/08 05:45:00;;;;;;;18.30;8.35;;;5.20;91.60;;;;;;6278474;28;20071;-82
2021/11/08 05:48:04;;;;;;;34.13;8.52;;;5.20;91.50;;;;;;6276640;28;20502;-82
2021/11/08 05:51:07;;;;;;;21.48;9.93;;;5.10;91.40;;;;;;6277304;28;20086;-80
2021/11/08 05:54:09;;;;;;;30.38;8.15;;;5.00;91.40;;;;;;6278692;28;20510;-81
2021/11/08 05:57:37;;;;;;;20.45;8.05;;;5.00;91.50;;;;;;6277827;28;20045;-81
2021/11/08 06:51:00;;;;;;;26.52;9.23;;;4.80;91.70;;;;;;6275904;28;20053;-81
2021/11/08 06:54:03;;;;;;;26.88;9.77;;;4.90;91.60;;;;;;6277164;28;20053;-81
2021/11/08 06:57:11;;;;;;;35.20;12.35;;;5.00;91.60;;;;;;6278520;28;20045;-81
2021/11/08 07:00:15;;;;;;;54.80;12.48;;;5.10;91.50;;;;;;6276439;28;20044;-81
2021/11/08 07:03:17;;;;;;;49.78;12.43;;;5.20;91.60;;;;;;6276671;28;20506;-81
2021/11/08 07:06:20;;;;;;;44.10;12.68;;;5.20;91.50;;;;;;6276408;28;20434;-81
2021/11/08 07:09:22;;;;;;;48.17;11.85;;;5.30;91.50;;;;;;6274236;28;20044;-81
2021/11/08 07:12:24;;;;;;;62.67;17.35;;;5.40;91.40;;;;;;6276604;28;20126;-82
2021/11/08 07:15:26;;;;;;;48.60;12.40;;;5.50;91.30;;;;;;6278138;28;20128;-80
2021/11/08 07:18:28;;;;;;;66.95;16.05;;;5.60;91.30;;;;;;6279326;28;20061;-80
2021/11/08 07:21:31;;;;;;;60.00;15.85;;;5.70;91.30;;;;;;6277433;28;20049;-82
2021/11/08 07:24:33;;;;;;;53.47;15.85;;;5.80;91.40;;;;;;6277337;28;20045;-81
2021/11/08 07:27:35;;;;;;;46.08;13.40;;;6.00;91.40;;;;;;6276595;28;20160;-80
2021/11/08 07:30:38;;;;;;;50.28;14.50;;;6.20;91.30;;;;;;6254477;28;20123;-82
2021/11/08 07:33:40;;;;;;;54.47;15.68;;;6.40;91.40;;;;;;6283022;28;20060;-82
2021/11/08 07:36:43;;;;;;;49.30;15.30;;;6.60;91.30;;;;;;6277983;28;20091;-79
2021/11/08 07:39:46;;;;;;;64.05;16.05;;;6.90;91.20;;;;;;6276131;28;20049;-80
2021/11/08 07:42:49;;;;;;;56.28;17.85;;;7.10;91.00;;;;;;6276295;28;20131;-80
2021/11/08 07:45:51;;;;;;;92.30;18.88;;;7.30;90.90;;;;;;6277167;28;20094;-80
2021/11/08 07:48:52;;;;;;;53.85;17.75;;;7.50;90.70;;;;;;6274525;28;20048;-80
2021/11/08 07:51:55;;;;;;;51.60;14.20;;;7.60;90.90;;;;;;6276472;28;20048;-80
2021/11/08 07:54:57;;;;;;;57.65;16.92;;;7.70;90.90;;;;;;6275961;28;20132;-80
2021/11/08 07:58:01;;;;;;;40.13;13.88;;;7.90;90.70;;;;;;6275000;28;20047;-81
2021/11/08 08:01:03;;;;;;;46.55;14.65;;;8.10;90.80;;;;;;6274390;28;20088;-80
2021/11/08 08:04:05;;;;;;;34.00;13.35;;;8.20;90.70;;;;;;6274767;28;20037;-81
2021/11/08 08:07:09;;;;;;;29.27;13.50;;;8.50;90.80;;;;;;6277735;28;20052;-80
2021/11/08 08:10:11;;;;;;;28.17;12.43;;;8.60;90.50;;;;;;6273032;28;20065;-82
2021/11/08 08:13:13;;;;;;;36.25;15.23;;;9.00;90.70;;;;;;6275358;28;20040;-81
2021/11/08 08:16:17;;;;;;;28.88;14.15;;;9.30;90.70;;;;;;6276015;28;20421;-80
2021/11/08 08:19:21;;;;;;;26.48;11.63;;;9.70;90.60;;;;;;6274102;28;20063;-81
2021/11/08 08:22:24;;;;;;;20.80;12.93;;;10.10;90.30;;;;;;6274935;28;20045;-82
2021/11/08 08:25:26;;;;;;;21.98;10.65;;;10.40;90.10;;;;;;6275272;28;20053;-81
2021/11/08 08:28:28;;;;;;;25.92;14.65;;;10.70;90.00;;;;;;6274415;28;20571;-81
2021/11/08 08:31:30;;;;;;;19.08;11.15;;;11.00;88.30;;;;;;6281836;28;20051;-82
2021/11/08 08:34:32;;;;;;;23.25;10.00;;;11.30;87.50;;;;;;6274878;28;20506;-81
2021/11/08 08:37:35;;;;;;;18.77;10.70;;;11.50;87.10;;;;;;6273744;28;20498;-82
2021/11/08 08:40:38;;;;;;;14.77;9.10;;;11.90;85.50;;;;;;6274012;28;20045;-81
2021/11/08 08:43:39;;;;;;;15.63;8.10;;;12.10;83.50;;;;;;6274542;28;20135;-81
2021/11/08 08:46:43;;;;;;;13.27;7.97;;;12.40;82.30;;;;;;6276244;28;20124;-81
2021/11/08 08:49:46;;;;;;;14.57;7.05;;;12.60;81.10;;;;;;6273948;28;20514;-80
2021/11/08 08:52:49;;;;;;;11.63;6.68;;;12.80;80.50;;;;;;6274517;28;20103;-80
2021/11/08 08:55:51;;;;;;;10.82;4.22;;;13.10;78.80;;;;;;6272407;28;20048;-80
2021/11/08 08:58:55;;;;;;;9.10;3.53;;;13.40;78.00;;;;;;6271546;28;20100;-81
2021/11/08 09:01:57;;;;;;;11.70;3.70;;;13.60;76.40;;;;;;6270118;28;20044;-80
2021/11/08 09:04:59;;;;;;;6.68;2.67;;;13.80;74.80;;;;;;6270861;28;20045;-80
2021/11/08 09:08:03;;;;;;;6.18;2.58;;;14.00;73.80;;;;;;6271336;28;20045;-81
2021/11/08 09:11:05;;;;;;;5.10;2.13;;;14.30;73.40;;;;;;6271348;28;20048;-82
2021/11/08 09:14:07;;;;;;;8.63;2.85;;;14.60;72.80;;;;;;6272981;28;20422;-81
2021/11/08 09:17:09;;;;;;;8.32;3.38;;;14.80;71.00;;;;;;6276787;28;20095;-80
2021/11/08 09:20:12;;;;;;;8.60;2.90;;;15.10;70.10;;;;;;6276082;28;20056;-80
2021/11/08 09:23:16;;;;;;;8.73;3.65;;;15.20;68.30;;;;;;6276287;28;20446;-81
2021/11/08 09:26:20;;;;;;;19.33;6.82;;;15.40;67.30;;;;;;6275336;28;20418;-80
2021/11/08 09:29:22;;;;;;;10.73;3.13;;;15.60;67.00;;;;;;6275590;28;20048;-81
2021/11/08 09:32:23;;;;;;;14.70;2.95;;;15.80;66.00;;;;;;6274274;28;20048;-81
2021/11/08 09:35:30;;;;;;;11.68;3.10;;;16.00;65.70;;;;;;6276041;28;20140;-82
2021/11/08 09:38:35;;;;;;;9.93;3.22;;;16.20;65.00;;;;;;6276015;28;20170;-82
2021/11/08 09:41:39;;;;;;;8.10;2.80;;;16.50;64.20;;;;;;6283611;28;20127;-81
2021/11/08 09:44:42;;;;;;;9.32;2.40;;;16.70;63.10;;;;;;6282624;28;20052;-82
2021/11/08 09:47:45;;;;;;;5.43;2.22;;;16.90;63.10;;;;;;6280268;28;20056;-82
2021/11/08 09:50:48;;;;;;;8.70;2.60;;;17.20;61.70;;;;;;6279290;28;20422;-81
2021/11/08 09:53:52;;;;;;;12.40;2.70;;;17.40;61.20;;;;;;6276565;28;20045;-82
2021/11/08 09:56:54;;;;;;;7.10;2.85;;;17.30;60.40;;;;;;6275896;28;20124;-81
2021/11/08 09:59:56;;;;;;;13.00;3.55;;;17.40;60.90;;;;;;6275192;28;20076;-81
2021/11/08 10:02:59;;;;;;;8.50;3.10;;;17.50;60.20;;;;;;6276670;28;20045;-82
2021/11/08 10:06:02;;;;;;;9.85;2.72;;;17.50;60.30;;;;;;6276564;28;20056;-81
2021/11/08 10:09:07;;;;;;;5.95;3.03;;;17.60;59.40;;;;;;6277593;28;20041;-82
2021/11/08 10:12:11;;;;;;;7.05;2.85;;;17.70;59.30;;;;;;6277320;28;20044;-81
2021/11/08 10:15:14;;;;;;;9.23;2.55;;;17.90;58.80;;;;;;6277249;28;20048;-81
2021/11/08 10:18:17;;;;;;;14.02;2.72;;;18.10;57.70;;;;;;6274614;28;20045;-81
2021/11/08 10:21:22;;;;;;;7.70;2.50;;;18.40;56.80;;;;;;6275982;28;20136;-82
2021/11/08 10:24:29;;;;;;;9.75;3.15;;;18.60;55.80;;;;;;6275924;28;20045;-81
2021/11/08 10:27:43;;;;;;;10.00;2.75;;;18.70;55.00;;;;;;6277772;28;20076;-81
2021/11/08 10:30:46;;;;;;;10.23;3.15;;;18.90;54.30;;;;;;6275163;28;20486;-81
2021/11/08 10:33:50;;;;;;;5.75;2.30;;;19.30;54.20;;;;;;6271455;28;20056;-82
2021/11/08 10:36:58;;;;;;;9.70;2.15;;;19.50;52.60;;;;;;6275414;28;20048;-82
2021/11/08 10:40:01;;;;;;;8.80;2.63;;;19.70;51.70;;;;;;6275281;28;20041;-82
2021/11/08 10:43:03;;;;;;;14.30;2.75;;;19.70;51.00;;;;;;6276273;28;20080;-82
2021/11/08 10:46:08;;;;;;;17.40;2.80;;;19.90;50.20;;;;;;6275619;28;20182;-82
2021/11/08 10:49:13;;;;;;;21.33;3.03;;;20.00;50.10;;;;;;6275086;28;20041;-81
2021/11/08 10:52:18;;;;;;;14.68;2.05;;;20.10;48.30;;;;;;6275649;28;20048;-81
2021/11/08 10:55:30;;;;;;;9.88;2.15;;;19.50;49.30;;;;;;6275664;28;20056;-81
2021/11/08 10:58:32;;;;;;;17.92;2.47;;;19.20;49.20;;;;;;6275787;28;20052;-81
2021/11/08 11:01:37;;;;;;;10.27;2.30;;;19.30;49.70;;;;;;6274641;28;20417;-82
2021/11/08 11:04:45;;;;;;;11.10;4.28;;;19.40;49.80;;;;;;6277156;28;20045;-82
2021/11/08 11:07:46;;;;;;;14.32;2.40;;;19.70;49.10;;;;;;6275793;28;20057;-81
2021/11/08 11:10:59;;;;;;;8.35;1.75;;;19.80;48.40;;;;;;6272357;28;20175;-82
2021/11/08 11:14:01;;;;;;;11.48;1.95;;;19.80;48.40;;;;;;6271688;28;20048;-81
2021/11/08 11:17:08;;;;;;;8.57;1.95;;;20.00;48.30;;;;;;6272891;28;20044;-82
2021/11/08 11:20:12;;;;;;;8.98;1.90;;;20.10;47.00;;;;;;6272306;28;20045;-81
2021/11/08 11:23:21;;;;;;;8.05;2.67;;;20.10;46.30;;;;;;6272953;28;20052;-81
2021/11/08 11:26:29;;;;;;;11.50;2.05;;;19.90;47.50;;;;;;6271928;28;20045;-81
2021/11/08 11:29:31;;;;;;;7.07;2.05;;;19.90;47.90;;;;;;6272337;28;20056;-82
2021/11/08 11:32:33;;;;;;;5.95;2.28;;;20.10;48.10;;;;;;6272277;28;20053;-82
2021/11/08 11:35:44;;;;;;;9.35;2.03;;;20.20;48.20;;;;;;6271772;28;20049;-81
2021/11/08 11:38:52;;;;;;;11.68;2.10;;;20.40;48.30;;;;;;6272230;28;20423;-82
2021/11/08 11:42:01;;;;;;;7.78;1.98;;;20.50;47.50;;;;;;6278504;28;20524;-82
2021/11/08 11:45:05;;;;;;;10.20;1.65;;;20.40;47.30;;;;;;6273590;28;20048;-82
2021/11/08 11:48:06;;;;;;;11.13;1.40;;;20.60;47.10;;;;;;6273610;28;20048;-82
2021/11/08 11:51:11;;;;;;;9.85;3.00;;;21.00;45.80;;;;;;6273384;28;20045;-81
2021/11/08 11:54:15;;;;;;;10.43;2.25;;;21.30;44.40;;;;;;6271328;28;20056;-82
2021/11/08 11:57:18;;;;;;;9.57;1.60;;;21.30;42.50;;;;;;6272668;28;20506;-81
2021/11/08 12:00:21;;;;;;;12.82;2.17;;;21.10;43.80;;;;;;6272774;28;20045;-81
2021/11/08 12:03:23;;;;;;;14.95;2.00;;;21.40;44.20;;;;;;6273428;28;20041;-81
2021/11/08 12:06:29;;;;;;;7.18;1.83;;;22.00;41.40;;;;;;6281191;28;20045;-82
2021/11/08 12:09:33;;;;;;;9.25;1.98;;;22.10;40.00;;;;;;6277944;28;20053;-82
2021/11/08 12:12:37;;;;;;;7.13;2.28;;;22.20;40.30;;;;;;6278099;28;20064;-83
2021/11/08 12:15:39;;;;;;;13.43;2.30;;;22.50;39.50;;;;;;6275403;28;20518;-81
2021/11/08 12:18:41;;;;;;;9.88;2.08;;;22.30;39.20;;;;;;6275883;28;20528;-82
2021/11/08 12:21:43;;;;;;;10.55;2.17;;;22.10;39.30;;;;;;6275872;28;20045;-83
2021/11/08 12:24:57;;;;;;;12.75;2.30;;;21.50;39.80;;;;;;6273258;28;20151;-81
2021/11/08 12:28:10;;;;;;;16.27;2.08;;;20.80;41.60;;;;;;6273294;28;20445;-82
2021/11/08 12:31:12;;;;;;;6.15;1.85;;;19.80;44.20;;;;;;6274118;28;20056;-82
2021/11/08 12:34:17;;;;;;;11.10;1.95;;;19.10;46.00;;;;;;6272647;28;20132;-81
2021/11/08 12:37:20;;;;;;;11.40;2.47;;;18.50;47.10;;;;;;6275806;28;20048;-80
2021/11/08 12:40:28;;;;;;;5.05;2.35;;;18.10;49.70;;;;;;6274533;28;20053;-81
2021/11/08 12:43:32;;;;;;;14.65;2.28;;;17.70;50.70;;;;;;6274837;28;20395;-81
2021/11/08 12:46:37;;;;;;;9.90;3.25;;;17.20;52.30;;;;;;6275014;28;20465;-80
2021/11/08 12:49:41;;;;;;;17.35;4.47;;;16.90;53.80;;;;;;6276817;28;20051;-80
2021/11/08 12:52:43;;;;;;;16.00;2.60;;;16.50;54.90;;;;;;6278099;28;20057;-80
2021/11/08 12:55:45;;;;;;;15.32;2.60;;;16.20;55.60;;;;;;6278638;28;20055;-81
2021/11/08 12:58:51;;;;;;;11.02;3.25;;;16.00;56.70;;;;;;6278663;28;20049;-80
2021/11/08 13:01:59;;;;;;;6.53;2.30;;;15.90;57.20;;;;;;6277159;28;20049;-80
2021/11/08 13:05:04;;;;;;;17.95;2.65;;;16.20;57.30;;;;;;6277528;28;20500;-80
2021/11/08 13:08:17;;;;;;;11.70;2.47;;;16.60;56.40;;;;;;6277966;28;20049;-80
2021/11/08 13:11:19;;;;;;;8.52;2.78;;;17.20;54.10;;;;;;6278385;28;20239;-82
2021/11/08 13:14:27;;;;;;;15.20;2.20;;;17.80;52.70;;;;;;6278599;28;20128;-81
2021/11/08 13:17:30;;;;;;;12.88;2.90;;;18.20;50.70;;;;;;6277140;28;20053;-80
2021/11/08 13:20:34;;;;;;;16.48;2.53;;;18.60;50.30;;;;;;6280763;28;20037;-80
2021/11/08 13:23:40;;;;;;;7.63;2.08;;;19.00;49.10;;;;;;6277853;28;20045;-80
2021/11/08 13:26:43;;;;;;;6.97;1.27;;;19.20;48.30;;;;;;6278611;28;20055;-79
2021/11/08 13:29:47;;;;;;;13.60;2.95;;;19.40;47.30;;;;;;6283481;28;20055;-81
2021/11/08 13:32:50;;;;;;;7.28;1.63;;;19.50;44.70;;;;;;6284508;28;20072;-82
2021/11/08 13:35:52;;;;;;;11.00;1.83;;;19.40;44.50;;;;;;6284685;28;20059;-80
2021/11/08 13:38:57;;;;;;;9.52;1.63;;;19.30;43.80;;;;;;6307014;28;20141;-80
2021/11/08 13:41:58;;;;;;;9.63;2.33;;;19.20;44.50;;;;;;6305803;28;20044;-80
2021/11/08 13:45:02;;;;;;;8.02;1.05;;;19.30;45.00;;;;;;6304381;28;20045;-80
2021/11/08 13:48:04;;;;;;;9.15;1.45;;;19.40;43.10;;;;;;6303112;28;20052;-81
2021/11/08 13:51:19;;;;;;;5.80;1.00;;;19.40;42.10;;;;;;6301970;28;20048;-80
2021/11/08 13:54:25;;;;;;;14.82;1.50;;;19.40;41.40;;;;;;6298968;28;20072;-79
2021/11/08 13:57:27;;;;;;;10.93;1.70;;;19.50;41.70;;;;;;6277524;28;20516;-79
2021/11/08 14:00:30;;;;;;;7.35;2.08;;;19.70;41.90;;;;;;6276937;28;20037;-79
2021/11/08 14:03:40;;;;;;;11.13;1.60;;;19.50;43.00;;;;;;6276890;28;20056;-80
2021/11/08 14:06:44;;;;;;;6.38;1.30;;;18.60;44.70;;;;;;6281072;28;20049;-80
2021/11/08 14:09:47;;;;;;;9.02;1.33;;;17.70;46.50;;;;;;6278075;28;20538;-79
2021/11/08 14:12:49;;;;;;;8.82;1.73;;;17.10;48.50;;;;;;6278891;28;20045;-79
2021/11/08 14:15:59;;;;;;;7.68;1.60;;;16.80;49.40;;;;;;6276490;28;20049;-79
2021/11/08 14:19:01;;;;;;;11.63;2.92;;;16.30;50.30;;;;;;6276259;28;20049;-80
2021/11/08 14:22:03;;;;;;;9.48;1.52;;;16.00;51.80;;;;;;6275074;28;20063;-80
2021/11/08 14:25:07;;;;;;;14.02;2.08;;;16.00;52.90;;;;;;6276450;28;20055;-80
2021/11/08 14:28:09;;;;;;;10.20;1.60;;;16.00;52.50;;;;;;6275395;28;20041;-80
2021/11/08 14:31:20;;;;;;;5.47;2.08;;;15.70;52.80;;;;;;6276653;28;20052;-81
2021/11/08 14:34:28;;;;;;;7.40;1.30;;;15.30;53.70;;;;;;6276061;28;20550;-80
2021/11/08 14:37:40;;;;;;;21.10;6.22;;;15.10;54.50;;;;;;6288603;28;20079;-81
2021/11/08 14:40:45;;;;;;;11.27;1.92;;;15.00;55.50;;;;;;6299523;28;20051;-80
2021/11/08 14:43:57;;;;;;;4.53;2.45;;;14.90;56.30;;;;;;6290221;28;20055;-82
2021/11/08 14:47:03;;;;;;;13.80;1.50;;;14.90;56.60;;;;;;6277106;28;20048;-81
2021/11/08 14:50:08;;;;;;;6.22;1.40;;;14.80;56.70;;;;;;6277134;28;20049;-82
2021/11/08 14:53:10;;;;;;;17.35;2.10;;;14.60;57.80;;;;;;6276346;28;20049;-81
2021/11/08 14:56:19;;;;;;;10.70;2.10;;;14.50;58.70;;;;;;6275197;28;20503;-81
2021/11/08 14:59:30;;;;;;;17.85;2.45;;;14.30;59.50;;;;;;6274993;28;20102;-81
2021/11/08 15:02:34;;;;;;;14.13;2.72;;;14.00;60.30;;;;;;6274199;28;20194;-81
2021/11/08 15:05:37;;;;;;;13.30;3.03;;;13.90;61.00;;;;;;6274481;28;20049;-81
2021/11/08 15:08:41;;;;;;;11.45;1.90;;;13.60;62.50;;;;;;6275159;28;20045;-81
2021/11/08 15:11:44;;;;;;;12.35;2.05;;;13.40;62.20;;;;;;6275764;28;20553;-81
2021/11/08 15:14:48;;;;;;;11.30;2.58;;;13.20;63.10;;;;;;6277254;28;20052;-81
2021/11/08 15:17:56;;;;;;;12.10;2.42;;;13.00;63.70;;;;;;6275930;28;20047;-81
2021/11/08 15:21:00;;;;;;;5.82;2.22;;;12.80;64.40;;;;;;6274998;28;20056;-81
2021/11/08 15:24:08;;;;;;;12.05;2.50;;;12.70;65.30;;;;;;6275556;28;20080;-80
2021/11/08 15:27:10;;;;;;;7.22;2.38;;;12.50;66.00;;;;;;6279328;28;20057;-80
2021/11/08 15:30:16;;;;;;;10.73;2.00;;;12.40;66.40;;;;;;6278967;28;20049;-80
2021/11/08 15:33:22;;;;;;;8.63;2.25;;;12.10;66.80;;;;;;6280545;28;20041;-79
2021/11/08 15:36:27;;;;;;;5.78;2.10;;;11.90;68.30;;;;;;6288381;28;20057;-79
2021/11/08 15:39:31;;;;;;;13.88;4.03;;;11.70;68.90;;;;;;6282701;28;20071;-80
2021/11/08 15:42:33;;;;;;;13.65;4.35;;;11.50;69.80;;;;;;6279986;28;20132;-80
2021/11/08 15:45:40;;;;;;;12.70;3.30;;;11.40;70.40;;;;;;6281151;28;20138;-82
2021/11/08 15:48:47;;;;;;;15.15;3.55;;;11.30;70.80;;;;;;6277851;28;20131;-79
2021/11/08 15:51:49;;;;;;;11.95;3.03;;;11.20;71.10;;;;;;6277446;28;20053;-80
2021/11/08 15:54:50;;;;;;;11.75;2.97;;;11.10;71.40;;;;;;6277830;28;20051;-80
2021/11/08 15:57:52;;;;;;;9.85;3.17;;;11.00;71.90;;;;;;6272458;28;20056;-81
2021/11/08 16:00:54;;;;;;;14.85;2.90;;;10.90;72.10;;;;;;6277896;28;20056;-79
2021/11/08 16:03:57;;;;;;;14.90;3.20;;;10.90;72.90;;;;;;6273945;28;20048;-79
2021/11/08 16:06:59;;;;;;;8.93;2.95;;;10.80;73.40;;;;;;6272258;28;20052;-79
2021/11/08 16:10:01;;;;;;;16.00;2.97;;;10.80;73.50;;;;;;6273155;28;20045;-80
2021/11/08 16:13:03;;;;;;;10.23;2.88;;;10.50;74.30;;;;;;6276200;28;20045;-79
2021/11/08 16:16:05;;;;;;;7.15;4.25;;;10.50;75.00;;;;;;6273154;28;20548;-79
2021/11/08 16:19:08;;;;;;;11.48;3.58;;;10.40;75.00;;;;;;6272112;28;20108;-82
2021/11/08 16:22:10;;;;;;;7.88;3.58;;;10.40;75.50;;;;;;6275798;28;20142;-80
2021/11/08 16:25:12;;;;;;;18.10;4.28;;;10.30;75.80;;;;;;6280339;28;20053;-79
2021/11/08 16:28:14;;;;;;;9.98;2.88;;;10.20;75.90;;;;;;6277447;28;20075;-79
2021/11/08 16:31:19;;;;;;;14.73;3.63;;;10.20;76.30;;;;;;6277519;28;20106;-79
2021/11/08 16:34:23;;;;;;;12.65;3.45;;;10.10;76.30;;;;;;6277255;28;20053;-79
2021/11/08 16:37:24;;;;;;;6.47;2.55;;;10.10;76.80;;;;;;6279323;28;20055;-79
2021/11/08 16:40:27;;;;;;;13.07;3.38;;;10.20;77.00;;;;;;6302053;22;20047;-82
2021/11/08 16:43:30;;;;;;;10.13;4.40;;;10.10;77.10;;;;;;6287994;28;20052;-83
2021/11/08 16:46:32;;;;;;;13.93;2.70;;;10.10;77.20;;;;;;6285998;28;20498;-84
2021/11/08 16:49:36;;;;;;;8.70;2.03;;;10.10;77.40;;;;;;6283576;28;20132;-81
2021/11/08 16:52:38;;;;;;;8.70;2.13;;;10.00;77.50;;;;;;6284244;28;20045;-81
2021/11/08 16:55:40;;;;;;;12.20;2.78;;;10.00;77.90;;;;;;6285169;28;20056;-78
2021/11/08 16:58:42;;;;;;;5.43;1.90;;;10.00;77.90;;;;;;6283886;28;20543;-81
2021/11/08 17:01:48;;;;;;;11.95;2.97;;;9.90;77.90;;;;;;6282881;28;20047;-81
2021/11/08 17:04:52;;;;;;;10.80;3.35;;;9.90;78.40;;;;;;6283986;28;20045;-80
2021/11/08 17:07:55;;;;;;;9.15;2.55;;;9.90;78.90;;;;;;6284811;28;20521;-80
2021/11/08 17:13:08;;;;;;;14.05;2.88;;;9.80;79.70;;;;;;6285233;28;20142;-79
2021/11/08 17:14:41;;;;;;;10.20;2.70;;;9.80;79.30;;;;;;6283599;28;20049;-81
2021/11/08 17:17:44;;;;;;;8.82;2.80;;;9.70;79.70;;;;;;6282630;28;20104;-80